Time;durP1;ratioP1;P1;durP2;ratioP2;P2;SDS_P1;SDS_P2;PMS_P1;PMS_P2;Temp;Humidity;BMP_temperature;BMP_pressure;BME280_temperature;BME280_humidity;BME280_pressure;Samples;Min_cycle;Max_cycle;Signal;HPM_P1;HPM_P2
2022/10/07 00:00:25;;;;;;;11.10;4.13;;;9.30;99.90;;;;;;10412369;28;20224;-74
2022/10/07 00:05:26;;;;;;;12.23;4.00;;;9.30;99.90;;;;;;10449932;28;20717;-74
2022/10/07 00:10:26;;;;;;;7.03;3.77;;;9.20;99.90;;;;;;10450176;28;20596;-74
2022/10/07 00:15:27;;;;;;;8.30;3.97;;;9.10;99.90;;;;;;10448627;28;20261;-73
2022/10/07 00:20:28;;;;;;;8.50;3.40;;;9.00;99.90;;;;;;10450228;28;20242;-73
2022/10/07 00:25:28;;;;;;;6.23;3.70;;;8.90;99.90;;;;;;10449464;28;20724;-73
2022/10/07 00:30:32;;;;;;;5.77;3.40;;;8.90;99.90;;;;;;10449361;28;20243;-73
2022/10/07 00:35:34;;;;;;;5.67;3.40;;;8.90;99.90;;;;;;10448673;28;20315;-74
2022/10/07 00:40:35;;;;;;;5.73;3.37;;;8.80;99.90;;;;;;10449015;28;20246;-74
2022/10/07 00:45:36;;;;;;;6.87;3.70;;;8.80;99.90;;;;;;10449193;28;20533;-73
2022/10/07 00:50:37;;;;;;;10.57;4.17;;;8.70;99.90;;;;;;10450142;28;20717;-73
2022/10/07 00:55:38;;;;;;;9.67;4.23;;;8.70;99.90;;;;;;10452970;28;20256;-73
2022/10/07 01:00:39;;;;;;;6.97;3.50;;;8.70;99.90;;;;;;10446597;28;20289;-73
2022/10/07 01:05:39;;;;;;;7.33;3.60;;;8.60;99.90;;;;;;10446456;28;20717;-75
2022/10/07 01:11:12;;;;;;;7.00;3.37;;;8.60;99.90;;;;;;10445635;28;20235;-72
2022/10/07 01:16:32;;;;;;;10.77;3.83;;;8.60;99.90;;;;;;10446381;28;20238;-73
2022/10/07 01:21:38;;;;;;;8.17;3.40;;;8.60;99.90;;;;;;10445938;28;20230;-73
2022/10/07 01:26:47;;;;;;;5.63;2.93;;;8.60;99.90;;;;;;10445692;28;20219;-74
2022/10/07 01:32:11;;;;;;;11.80;3.17;;;8.50;99.90;;;;;;10444700;28;20703;-74
2022/10/07 01:37:16;;;;;;;9.60;3.67;;;8.50;99.90;;;;;;10445770;28;20603;-74
2022/10/07 01:42:18;;;;;;;6.83;3.63;;;8.40;99.90;;;;;;10438677;28;20227;-74
2022/10/07 01:47:19;;;;;;;7.03;3.50;;;8.40;99.90;;;;;;10446943;28;20239;-74
2022/10/07 01:52:54;;;;;;;5.30;2.87;;;8.40;99.90;;;;;;10446843;28;20233;-74
2022/10/07 01:58:06;;;;;;;6.53;2.80;;;8.40;99.90;;;;;;10447240;28;20220;-75
2022/10/07 02:03:37;;;;;;;5.77;3.17;;;8.30;99.90;;;;;;10445600;28;20224;-75
2022/10/07 02:08:44;;;;;;;7.17;2.90;;;8.20;99.90;;;;;;10448758;28;20306;-74
2022/10/07 02:13:57;;;;;;;5.47;2.50;;;8.20;99.90;;;;;;10454404;28;20238;-72
2022/10/07 02:19:02;;;;;;;5.80;3.43;;;8.10;99.90;;;;;;10454054;28;20216;-72
2022/10/07 02:24:04;;;;;;;5.57;2.67;;;8.00;99.90;;;;;;10453501;28;20285;-74
2022/10/07 02:29:08;;;;;;;5.13;2.23;;;8.10;99.90;;;;;;10453412;28;20227;-74
2022/10/07 02:34:13;;;;;;;4.07;2.50;;;8.10;99.90;;;;;;10451891;28;20639;-74
2022/10/07 02:39:14;;;;;;;4.60;2.20;;;8.00;99.90;;;;;;10453321;28;20219;-74
2022/10/07 02:44:46;;;;;;;7.17;2.30;;;8.00;99.90;;;;;;10451866;28;20437;-74
2022/10/07 02:49:52;;;;;;;6.00;2.80;;;8.00;99.90;;;;;;10448966;28;20226;-73
2022/10/07 02:55:00;;;;;;;7.27;2.70;;;7.90;99.90;;;;;;10450657;28;20232;-73
2022/10/07 03:00:01;;;;;;;6.10;3.10;;;7.90;99.90;;;;;;10452214;28;20224;-73
2022/10/07 03:05:02;;;;;;;4.97;2.47;;;7.90;99.90;;;;;;10452168;28;20766;-72
2022/10/07 03:10:06;;;;;;;6.90;2.80;;;8.00;99.90;;;;;;10452458;28;20216;-73
2022/10/07 03:15:07;;;;;;;4.57;2.73;;;8.20;99.90;;;;;;10450593;28;20319;-73
2022/10/07 03:20:08;;;;;;;6.93;2.07;;;8.40;99.90;;;;;;10450934;28;20172;-74
2022/10/07 03:25:10;;;;;;;4.57;2.67;;;8.50;99.90;;;;;;10467388;28;20187;-73
2022/10/07 03:30:11;;;;;;;7.10;2.93;;;8.40;99.90;;;;;;10451442;28;20623;-73
2022/10/07 03:35:12;;;;;;;5.90;2.53;;;8.30;99.90;;;;;;10450791;28;20265;-76
2022/10/07 03:40:12;;;;;;;7.77;2.50;;;8.30;99.90;;;;;;10451620;28;20553;-75
2022/10/07 03:45:13;;;;;;;4.83;2.60;;;8.20;99.90;;;;;;10449731;28;20195;-75
2022/10/07 03:50:14;;;;;;;5.17;2.77;;;8.20;99.90;;;;;;10450444;28;20223;-76
2022/10/07 03:55:23;;;;;;;8.57;2.53;;;8.20;99.90;;;;;;10448519;28;20217;-76
2022/10/07 04:00:25;;;;;;;9.67;4.30;;;8.20;99.90;;;;;;10442805;28;20215;-78
2022/10/07 04:05:27;;;;;;;12.30;6.13;;;8.20;99.90;;;;;;10449914;28;20575;-78
2022/10/07 04:10:28;;;;;;;11.13;5.40;;;8.20;99.90;;;;;;10447775;28;20216;-78
2022/10/07 04:15:29;;;;;;;10.80;5.27;;;8.20;99.90;;;;;;10448776;28;20742;-76
2022/10/07 04:20:29;;;;;;;9.00;4.30;;;8.10;99.90;;;;;;10449150;28;20223;-73
2022/10/07 04:25:33;;;;;;;8.63;3.47;;;8.10;99.90;;;;;;10447380;28;20269;-68
2022/10/07 04:30:39;;;;;;;6.50;3.50;;;8.10;99.90;;;;;;10447228;28;20226;-70
2022/10/07 04:35:40;;;;;;;5.23;2.90;;;8.20;99.90;;;;;;10448402;28;20576;-69
2022/10/07 04:40:42;;;;;;;7.87;3.87;;;8.30;99.90;;;;;;10447133;28;20293;-70
2022/10/07 04:45:43;;;;;;;9.03;2.90;;;8.50;99.90;;;;;;10448008;28;20222;-69
2022/10/07 04:50:47;;;;;;;8.17;3.20;;;8.60;99.90;;;;;;10446937;28;20223;-69
2022/10/07 04:55:50;;;;;;;4.70;2.73;;;8.70;99.90;;;;;;10446337;28;20218;-69
2022/10/07 05:00:52;;;;;;;9.10;3.23;;;8.70;99.90;;;;;;10447192;28;20706;-70
2022/10/07 05:05:54;;;;;;;6.00;2.57;;;8.70;99.90;;;;;;10447488;28;20227;-69
2022/10/07 05:10:57;;;;;;;3.73;2.40;;;8.70;99.90;;;;;;10447556;28;20235;-69
2022/10/07 05:16:00;;;;;;;7.47;3.00;;;8.70;99.90;;;;;;10448524;28;20310;-67
2022/10/07 05:21:07;;;;;;;7.60;2.87;;;8.80;99.90;;;;;;10446408;28;20216;-68
2022/10/07 05:26:09;;;;;;;7.17;3.53;;;8.70;99.90;;;;;;10447128;28;20215;-72
2022/10/07 05:31:12;;;;;;;7.03;3.50;;;8.70;99.90;;;;;;10447122;28;20222;-75
2022/10/07 05:36:12;;;;;;;8.70;3.37;;;8.70;99.90;;;;;;10447134;28;20236;-73
2022/10/07 05:41:13;;;;;;;9.10;3.20;;;8.70;99.90;;;;;;10451349;28;20218;-72
2022/10/07 05:46:15;;;;;;;10.70;3.50;;;8.80;99.90;;;;;;10454363;28;20222;-72
2022/10/07 05:51:17;;;;;;;5.50;3.23;;;8.70;99.90;;;;;;10455283;28;20223;-72
2022/10/07 05:56:22;;;;;;;7.13;3.40;;;8.80;99.90;;;;;;10453184;28;20211;-72
2022/10/07 06:01:23;;;;;;;11.20;3.40;;;8.90;99.90;;;;;;10453979;28;20288;-73
2022/10/07 06:06:24;;;;;;;17.80;4.13;;;8.90;99.90;;;;;;10455323;28;20247;-72
2022/10/07 06:16:47;;;;;;;9.00;4.37;;;9.00;99.90;;;;;;10454057;28;20299;-74
2022/10/07 06:21:48;;;;;;;8.37;3.63;;;9.00;99.90;;;;;;10454576;28;20219;-73
2022/10/07 06:26:48;;;;;;;7.37;3.53;;;9.00;99.90;;;;;;10454630;28;20247;-74
2022/10/07 06:31:52;;;;;;;8.83;3.63;;;9.10;99.90;;;;;;10452065;28;20297;-72
2022/10/07 06:36:53;;;;;;;11.30;3.37;;;9.30;99.90;;;;;;10453549;28;20717;-72
2022/10/07 06:41:56;;;;;;;12.73;3.63;;;9.60;99.90;;;;;;10451960;28;20227;-72
2022/10/07 06:46:56;;;;;;;5.60;3.20;;;9.90;99.90;;;;;;10453950;28;20265;-72
2022/10/07 06:51:57;;;;;;;6.47;3.13;;;10.30;99.90;;;;;;10450732;28;20231;-73
2022/10/07 06:56:57;;;;;;;6.97;2.80;;;11.00;99.90;;;;;;10451960;28;20220;-73
2022/10/07 07:01:58;;;;;;;9.60;3.43;;;11.80;99.90;;;;;;10453306;28;20273;-73
2022/10/07 07:06:59;;;;;;;32.23;7.23;;;11.90;99.90;;;;;;10452352;28;20740;-72
2022/10/07 07:11:59;;;;;;;12.53;4.60;;;12.00;99.90;;;;;;10452055;28;20247;-73
2022/10/07 07:17:00;;;;;;;8.70;3.60;;;12.00;99.90;;;;;;10452581;28;20215;-73
2022/10/07 07:22:01;;;;;;;9.03;3.90;;;12.30;99.90;;;;;;10452227;28;20220;-72
2022/10/07 07:27:01;;;;;;;7.33;2.70;;;14.60;99.90;;;;;;10452083;28;20225;-73
2022/10/07 07:32:03;;;;;;;8.60;3.70;;;17.80;99.90;;;;;;10449364;28;20219;-73
2022/10/07 07:37:03;;;;;;;6.00;3.20;;;18.70;99.90;;;;;;10451862;28;20215;-73
2022/10/07 07:42:04;;;;;;;10.10;4.07;;;20.60;98.80;;;;;;10451027;28;20238;-73
2022/10/07 07:47:06;;;;;;;8.63;3.23;;;22.90;88.00;;;;;;10449639;28;20216;-73
2022/10/07 07:52:08;;;;;;;11.57;4.97;;;23.20;77.10;;;;;;10450704;28;20709;-74
2022/10/07 07:57:10;;;;;;;13.70;5.93;;;24.40;70.40;;;;;;10451262;28;20216;-74
2022/10/07 08:02:11;;;;;;;10.77;5.17;;;26.10;59.60;;;;;;10449516;28;20204;-74
2022/10/07 08:07:12;;;;;;;10.73;5.10;;;28.00;54.60;;;;;;10450046;28;20223;-74
2022/10/07 08:12:13;;;;;;;18.10;5.37;;;29.20;48.80;;;;;;10450018;28;20602;-74
2022/10/07 08:17:14;;;;;;;12.77;4.70;;;30.40;45.80;;;;;;10450290;28;20211;-74
2022/10/07 08:22:16;;;;;;;13.13;4.53;;;31.60;43.30;;;;;;10449799;28;20294;-74
2022/10/07 08:27:17;;;;;;;11.53;4.87;;;32.80;40.30;;;;;;10448770;28;20226;-73
2022/10/07 08:32:24;;;;;;;11.03;4.97;;;33.40;37.10;;;;;;10441308;28;20687;-74
2022/10/07 08:37:24;;;;;;;15.00;4.50;;;33.20;36.30;;;;;;10447981;28;20219;-73
2022/10/07 08:42:34;;;;;;;9.00;4.10;;;32.60;37.90;;;;;;10448296;28;20595;-73
2022/10/07 08:47:42;;;;;;;9.53;4.00;;;32.90;38.00;;;;;;10449365;28;20224;-73
2022/10/07 08:52:52;;;;;;;9.63;4.23;;;33.40;36.70;;;;;;10447266;28;20584;-73
2022/10/07 08:58:30;;;;;;;8.77;3.67;;;33.50;36.20;;;;;;10448252;28;20220;-74
2022/10/07 09:03:48;;;;;;;7.17;3.67;;;34.00;35.70;;;;;;10438522;28;20219;-72
2022/10/07 09:08:56;;;;;;;9.10;4.13;;;34.80;34.60;;;;;;10447757;28;20250;-73
2022/10/07 09:14:20;;;;;;;12.20;3.77;;;35.70;33.70;;;;;;10447048;28;20240;-74
2022/10/07 09:19:30;;;;;;;12.77;4.13;;;35.30;32.50;;;;;;10446825;28;20216;-73
2022/10/07 09:24:33;;;;;;;7.93;3.10;;;35.90;32.50;;;;;;10446973;28;20219;-74
2022/10/07 09:29:35;;;;;;;9.27;3.33;;;35.60;33.00;;;;;;10445876;28;20212;-73
2022/10/07 09:34:36;;;;;;;7.30;3.57;;;34.90;33.50;;;;;;10446823;28;20266;-73
2022/10/07 09:39:38;;;;;;;10.80;3.53;;;33.10;36.00;;;;;;10447671;28;20609;-73
2022/10/07 09:44:39;;;;;;;22.83;4.27;;;33.40;35.60;;;;;;10445607;28;20232;-73
2022/10/07 09:49:42;;;;;;;10.57;3.20;;;33.70;35.30;;;;;;10446627;28;20216;-73
2022/10/07 09:54:45;;;;;;;7.80;3.23;;;34.40;35.20;;;;;;10446806;28;20235;-73
2022/10/07 09:59:46;;;;;;;10.87;3.07;;;35.50;33.40;;;;;;10445587;28;20262;-73
2022/10/07 10:04:55;;;;;;;6.50;2.90;;;37.10;31.40;;;;;;10446522;28;20303;-73
2022/10/07 10:10:02;;;;;;;6.37;2.40;;;38.00;30.30;;;;;;10446930;28;20216;-73
2022/10/07 10:15:35;;;;;;;11.63;2.67;;;38.70;29.70;;;;;;10444856;28;20228;-73
2022/10/07 10:20:43;;;;;;;11.13;2.63;;;38.70;29.00;;;;;;10440518;28;20208;-73
2022/10/07 10:26:26;;;;;;;8.80;2.70;;;38.90;28.60;;;;;;10448515;28;20216;-74
2022/10/07 10:31:49;;;;;;;5.50;2.83;;;38.80;28.70;;;;;;10446521;28;20293;-74
2022/10/07 10:37:17;;;;;;;4.53;2.30;;;37.20;30.00;;;;;;10452634;28;20220;-74
2022/10/07 10:42:24;;;;;;;6.23;2.53;;;37.30;30.00;;;;;;10451958;28;20594;-74
2022/10/07 10:47:55;;;;;;;7.97;2.50;;;38.30;29.40;;;;;;10445807;28;20307;-73
2022/10/07 10:53:01;;;;;;;7.03;2.40;;;38.40;29.30;;;;;;10453215;28;20224;-73
2022/10/07 10:58:37;;;;;;;6.77;2.40;;;38.80;28.70;;;;;;10453067;28;20243;-73
2022/10/07 11:04:11;;;;;;;5.57;2.90;;;38.90;27.90;;;;;;10447251;28;20231;-73
2022/10/07 11:09:28;;;;;;;11.97;3.40;;;38.00;28.50;;;;;;10452537;28;20216;-74
2022/10/07 11:14:30;;;;;;;11.83;3.23;;;34.50;32.50;;;;;;10443966;28;20819;-73
2022/10/07 11:19:38;;;;;;;10.40;3.40;;;30.50;37.60;;;;;;10450909;28;20237;-73
2022/10/07 11:24:49;;;;;;;6.03;2.60;;;27.50;41.80;;;;;;10451702;28;20220;-72
2022/10/07 11:30:00;;;;;;;10.77;2.43;;;25.50;46.70;;;;;;10452182;28;20583;-75
2022/10/07 11:35:24;;;;;;;6.67;2.13;;;24.50;49.10;;;;;;10451773;28;20260;-73
2022/10/07 11:40:28;;;;;;;6.37;2.00;;;23.90;50.10;;;;;;10437284;28;20691;-73
2022/10/07 11:45:37;;;;;;;8.97;2.40;;;23.40;50.00;;;;;;10449232;28;20260;-74
2022/10/07 11:50:47;;;;;;;6.27;2.07;;;23.10;51.10;;;;;;10449692;28;20683;-74
2022/10/07 11:55:57;;;;;;;4.90;2.00;;;22.80;51.50;;;;;;10450239;28;20228;-74
2022/10/07 12:01:27;;;;;;;6.37;2.37;;;22.70;52.70;;;;;;10449789;28;20211;-72
2022/10/07 12:06:28;;;;;;;10.10;2.70;;;22.50;53.30;;;;;;10442062;28;20224;-74
2022/10/07 12:11:31;;;;;;;5.53;2.07;;;22.20;54.80;;;;;;10449880;28;20243;-73
2022/10/07 12:16:32;;;;;;;5.40;1.97;;;22.50;53.30;;;;;;10449731;28;20204;-73
2022/10/07 12:21:56;;;;;;;5.53;1.90;;;22.80;53.70;;;;;;10448759;28;20216;-74
2022/10/07 12:27:20;;;;;;;6.90;1.97;;;22.80;52.80;;;;;;10449455;28;20220;-73
2022/10/07 12:32:39;;;;;;;5.50;1.93;;;22.60;54.60;;;;;;10440783;28;20224;-74
2022/10/07 12:37:39;;;;;;;4.07;1.87;;;22.30;55.40;;;;;;10448429;28;20276;-74
2022/10/07 12:42:46;;;;;;;5.47;2.27;;;22.10;56.30;;;;;;10448347;28;20268;-73
2022/10/07 12:47:51;;;;;;;9.63;2.20;;;21.80;57.40;;;;;;10448642;28;20223;-73
2022/10/07 12:52:54;;;;;;;8.50;2.13;;;21.40;58.60;;;;;;10447445;28;20246;-73
2022/10/07 13:03:25;;;;;;;8.43;2.00;;;21.20;62.20;;;;;;10448487;28;20220;-74
2022/10/07 13:08:45;;;;;;;8.27;2.40;;;21.10;62.10;;;;;;10440953;28;20702;-73
2022/10/07 13:14:00;;;;;;;6.90;2.30;;;21.10;63.20;;;;;;10446492;28;20254;-73
2022/10/07 13:19:19;;;;;;;5.00;2.37;;;21.20;62.80;;;;;;10447994;28;20222;-73
2022/10/07 13:24:23;;;;;;;6.17;2.10;;;21.10;64.40;;;;;;10447051;28;20223;-74
2022/10/07 13:29:31;;;;;;;4.73;1.97;;;21.10;64.50;;;;;;10448073;28;20214;-73
2022/10/07 13:34:35;;;;;;;7.63;2.27;;;21.00;65.30;;;;;;10445745;28;20905;-73
2022/10/07 13:39:36;;;;;;;11.00;2.30;;;20.80;66.60;;;;;;10447146;28;20238;-73
2022/10/07 13:44:42;;;;;;;4.63;2.37;;;20.70;68.20;;;;;;10446302;28;20208;-73
2022/10/07 13:49:45;;;;;;;8.37;2.07;;;20.60;70.10;;;;;;10440889;28;20219;-73
2022/10/07 13:54:51;;;;;;;7.37;2.70;;;20.60;70.60;;;;;;10446043;28;20227;-73
2022/10/07 13:59:51;;;;;;;10.83;2.67;;;20.60;71.20;;;;;;10447969;28;20215;-73
2022/10/07 14:05:03;;;;;;;6.33;2.43;;;20.60;71.50;;;;;;10454520;28;20231;-73
2022/10/07 14:10:08;;;;;;;17.70;2.77;;;20.50;73.00;;;;;;10454693;28;20447;-74
2022/10/07 14:15:17;;;;;;;6.33;2.10;;;20.40;73.50;;;;;;10453907;28;20357;-73
2022/10/07 14:20:24;;;;;;;10.80;2.90;;;20.20;74.90;;;;;;10452210;28;20274;-73
2022/10/07 14:25:31;;;;;;;7.23;2.33;;;20.10;76.50;;;;;;10447299;28;20246;-72
2022/10/07 14:36:11;;;;;;;7.47;2.30;;;19.80;79.60;;;;;;10453745;28;20639;-73
2022/10/07 14:41:14;;;;;;;7.53;2.53;;;19.70;80.90;;;;;;10452304;28;20432;-72
2022/10/07 14:46:18;;;;;;;9.00;2.33;;;19.70;81.90;;;;;;10453620;28;20216;-73
2022/10/07 14:51:25;;;;;;;8.10;2.40;;;19.60;83.80;;;;;;10442796;28;20242;-72
2022/10/07 14:56:29;;;;;;;6.13;2.40;;;19.60;85.40;;;;;;10445803;28;20748;-74
2022/10/07 15:01:30;;;;;;;7.73;2.80;;;19.50;86.80;;;;;;10452175;28;20664;-73
2022/10/07 15:06:32;;;;;;;9.20;2.60;;;19.40;88.90;;;;;;10452639;28;20306;-74
2022/10/07 15:11:34;;;;;;;7.63;2.57;;;19.30;90.00;;;;;;10451814;28;20251;-74
2022/10/07 15:16:38;;;;;;;5.53;2.60;;;19.20;91.30;;;;;;10452423;28;20216;-73
2022/10/07 15:21:38;;;;;;;8.63;2.60;;;19.10;92.30;;;;;;10452294;28;20216;-73
2022/10/07 15:26:40;;;;;;;8.87;2.47;;;19.00;93.60;;;;;;10451540;28;20233;-74
2022/10/07 15:31:41;;;;;;;7.77;2.87;;;19.10;93.90;;;;;;10451363;28;20245;-74
2022/10/07 15:36:42;;;;;;;7.67;2.50;;;19.10;94.60;;;;;;10451337;28;20219;-74
2022/10/07 15:41:43;;;;;;;7.23;2.57;;;19.00;95.70;;;;;;10449482;28;20255;-74
2022/10/07 15:46:46;;;;;;;7.40;2.60;;;19.00;96.30;;;;;;10451616;28;20222;-74
2022/10/07 15:51:49;;;;;;;12.03;2.70;;;18.80;97.30;;;;;;10450323;28;20314;-73
2022/10/07 15:56:50;;;;;;;4.90;2.60;;;18.70;98.90;;;;;;10450526;28;20215;-73
2022/10/07 16:01:51;;;;;;;7.77;2.60;;;18.60;99.90;;;;;;10449576;28;20222;-73
2022/10/07 16:06:51;;;;;;;8.23;2.77;;;18.50;99.90;;;;;;10448980;28;20963;-73
2022/10/07 16:11:52;;;;;;;3.20;2.33;;;18.50;99.90;;;;;;10450596;28;20609;-72
2022/10/07 16:16:53;;;;;;;4.67;2.00;;;18.40;99.90;;;;;;10449783;28;20211;-74
2022/10/07 16:21:54;;;;;;;6.50;2.50;;;18.30;99.90;;;;;;10449989;28;20302;-73
2022/10/07 16:26:56;;;;;;;6.57;2.37;;;18.10;99.90;;;;;;10447842;28;20222;-73
2022/10/07 16:31:56;;;;;;;9.67;2.53;;;18.00;99.90;;;;;;10447843;28;20223;-72
2022/10/07 16:36:57;;;;;;;10.17;3.20;;;17.80;99.90;;;;;;10445421;28;20227;-72
2022/10/07 16:42:01;;;;;;;7.17;3.07;;;17.60;99.90;;;;;;10448926;28;20536;-73
2022/10/07 16:47:02;;;;;;;4.33;2.20;;;17.40;99.90;;;;;;10448606;28;20313;-73
2022/10/07 16:52:03;;;;;;;7.07;2.23;;;17.10;99.90;;;;;;10448406;28;20229;-73
2022/10/07 16:57:03;;;;;;;9.93;3.17;;;16.80;99.90;;;;;;10448465;28;20230;-73
2022/10/07 17:02:05;;;;;;;6.83;4.23;;;16.60;99.90;;;;;;10447061;28;20306;-73
2022/10/07 17:07:05;;;;;;;8.47;4.50;;;16.30;99.90;;;;;;10448663;28;20220;-73
2022/10/07 17:12:09;;;;;;;7.37;4.17;;;16.10;99.90;;;;;;10446892;28;20253;-72
2022/10/07 17:17:10;;;;;;;7.40;3.80;;;16.00;99.90;;;;;;10446324;28;20260;-73
2022/10/07 17:22:10;;;;;;;9.03;3.70;;;15.90;99.90;;;;;;10447487;28;20222;-72
2022/10/07 17:27:11;;;;;;;9.17;4.77;;;15.80;99.90;;;;;;10446712;28;20309;-72
2022/10/07 17:32:11;;;;;;;10.83;3.80;;;15.60;99.90;;;;;;10447233;28;20705;-73
2022/10/07 17:37:13;;;;;;;9.73;3.40;;;15.50;99.90;;;;;;10446713;28;20265;-73
2022/10/07 17:42:14;;;;;;;9.83;3.93;;;15.40;99.90;;;;;;10447683;28;20228;-72
2022/10/07 17:47:14;;;;;;;8.90;3.43;;;15.30;99.90;;;;;;10447377;28;20273;-72
2022/10/07 17:52:15;;;;;;;6.97;3.20;;;15.20;99.90;;;;;;10445345;28;20217;-73
2022/10/07 17:57:15;;;;;;;5.60;3.20;;;15.20;99.90;;;;;;10436571;28;20694;-73
2022/10/07 18:02:16;;;;;;;11.03;3.93;;;15.00;99.90;;;;;;10447434;28;20714;-73
2022/10/07 18:07:17;;;;;;;7.67;3.83;;;15.00;99.90;;;;;;10445353;28;20219;-73
2022/10/07 18:17:37;;;;;;;9.67;5.40;;;15.00;99.90;;;;;;10441251;28;20309;-73
2022/10/07 18:22:37;;;;;;;9.17;4.63;;;15.00;99.90;;;;;;10445823;28;20226;-73
2022/10/07 18:27:39;;;;;;;10.47;4.20;;;15.00;99.90;;;;;;10447413;28;20683;-73
2022/10/07 18:32:42;;;;;;;9.07;4.43;;;15.00;99.90;;;;;;10445166;28;20232;-73
2022/10/07 18:37:44;;;;;;;11.50;5.57;;;15.00;99.90;;;;;;10446272;28;20226;-72
2022/10/07 18:42:44;;;;;;;9.33;5.73;;;15.00;99.90;;;;;;10446607;28;20223;-73
2022/10/07 18:47:45;;;;;;;13.67;9.47;;;15.00;99.90;;;;;;10448827;28;20229;-73
2022/10/07 18:52:45;;;;;;;14.47;9.07;;;15.00;99.90;;;;;;10453221;28;20694;-73
2022/10/07 18:57:46;;;;;;;11.23;7.77;;;15.00;99.90;;;;;;10454076;28;20685;-73
2022/10/07 19:02:49;;;;;;;11.07;7.17;;;14.90;99.90;;;;;;10454453;28;20291;-73
2022/10/07 19:07:50;;;;;;;11.10;7.07;;;14.90;99.90;;;;;;10452711;28;20357;-73
2022/10/07 19:18:11;;;;;;;11.30;6.70;;;14.80;99.90;;;;;;10452687;28;20218;-74
2022/10/07 19:23:11;;;;;;;9.43;5.87;;;14.60;99.90;;;;;;10464678;28;20262;-73
2022/10/07 19:28:12;;;;;;;11.60;6.07;;;14.60;99.90;;;;;;10451680;28;20644;-73
2022/10/07 19:33:13;;;;;;;10.40;5.70;;;14.50;99.90;;;;;;10450752;28;20233;-72
2022/10/07 19:38:13;;;;;;;10.23;7.10;;;14.50;99.90;;;;;;10450766;28;20224;-72
2022/10/07 19:43:14;;;;;;;13.47;6.63;;;14.50;99.90;;;;;;10450278;28;20216;-74
2022/10/07 19:48:14;;;;;;;8.60;5.63;;;14.50;99.90;;;;;;10451303;28;20219;-72
2022/10/07 19:53:15;;;;;;;7.97;5.20;;;14.40;99.90;;;;;;10451168;28;20435;-73
2022/10/07 19:58:19;;;;;;;11.10;6.00;;;14.40;99.90;;;;;;10450643;28;20219;-73
2022/10/07 20:03:19;;;;;;;10.70;6.10;;;14.40;99.90;;;;;;10449246;28;20239;-72
2022/10/07 20:08:20;;;;;;;10.53;5.77;;;14.40;99.90;;;;;;10443237;28;20221;-72
2022/10/07 20:13:21;;;;;;;9.93;5.93;;;14.30;99.90;;;;;;10449120;28;20216;-73
2022/10/07 20:18:21;;;;;;;12.40;6.27;;;14.40;99.90;;;;;;10449936;28;20214;-72
2022/10/07 20:23:22;;;;;;;9.80;5.93;;;14.30;99.90;;;;;;10448663;28;20215;-72
2022/10/07 20:28:23;;;;;;;10.73;6.27;;;14.40;99.90;;;;;;10449520;28;20223;-73
2022/10/07 20:33:23;;;;;;;10.10;6.10;;;14.40;99.90;;;;;;10449876;28;20583;-73
2022/10/07 20:38:24;;;;;;;10.73;6.03;;;14.30;99.90;;;;;;10449653;28;20688;-73
2022/10/07 20:43:24;;;;;;;9.63;5.83;;;14.30;99.90;;;;;;10448944;28;20218;-73
2022/10/07 20:48:27;;;;;;;12.17;6.80;;;14.30;99.90;;;;;;10448655;28;20220;-72
2022/10/07 20:53:28;;;;;;;10.17;7.33;;;14.30;99.90;;;;;;10447729;28;20968;-73
2022/10/07 20:58:31;;;;;;;13.87;6.57;;;14.20;99.90;;;;;;10446887;28;20212;-73
2022/10/07 21:03:37;;;;;;;17.03;6.83;;;14.20;99.90;;;;;;10449586;28;20230;-74
2022/10/07 21:08:38;;;;;;;10.03;7.37;;;14.20;99.90;;;;;;10431695;28;20307;-74
2022/10/07 21:13:39;;;;;;;12.07;7.20;;;14.20;99.90;;;;;;10412036;28;20235;-74
2022/10/07 21:18:39;;;;;;;14.57;7.50;;;14.20;99.90;;;;;;10406343;28;20222;-73
2022/10/07 21:23:40;;;;;;;11.33;7.40;;;14.20;99.90;;;;;;10406497;28;20216;-74
2022/10/07 21:28:41;;;;;;;11.83;8.00;;;14.10;99.90;;;;;;10436987;28;20300;-72
2022/10/07 21:33:43;;;;;;;12.97;7.70;;;14.10;99.90;;;;;;10446929;28;20316;-73
2022/10/07 21:38:57;;;;;;;13.73;8.57;;;14.00;99.90;;;;;;10447812;28;20486;-73
2022/10/07 21:43:57;;;;;;;10.33;7.83;;;14.10;99.90;;;;;;10446023;28;20255;-73
2022/10/07 21:48:58;;;;;;;13.03;8.40;;;14.00;99.90;;;;;;10447648;28;20222;-73
2022/10/07 21:54:00;;;;;;;13.40;7.17;;;13.90;99.90;;;;;;10445117;28;20242;-73
2022/10/07 21:59:03;;;;;;;9.57;6.67;;;14.00;99.90;;;;;;10446788;28;20216;-73
2022/10/07 22:04:03;;;;;;;12.57;7.80;;;14.00;99.90;;;;;;10445565;28;20298;-73
2022/10/07 22:09:04;;;;;;;14.33;7.47;;;14.00;99.90;;;;;;10444825;28;20301;-73
2022/10/07 22:14:04;;;;;;;10.07;6.23;;;14.10;99.90;;;;;;10446245;28;20233;-73
2022/10/07 22:19:05;;;;;;;9.73;6.57;;;14.20;99.90;;;;;;10446855;28;20212;-73
2022/10/07 22:24:07;;;;;;;13.17;7.13;;;14.30;99.90;;;;;;10452970;28;20218;-71
2022/10/07 22:29:08;;;;;;;12.03;7.00;;;14.40;99.90;;;;;;10454108;28;20215;-73
2022/10/07 22:35:26;;;;;;;10.77;6.67;;;14.50;99.90;;;;;;10453734;28;20343;-73
2022/10/07 22:39:30;;;;;;;10.07;6.97;;;14.50;99.90;;;;;;10447366;28;20213;-73
2022/10/07 22:44:31;;;;;;;10.67;6.77;;;14.50;99.90;;;;;;10453459;28;20218;-72
2022/10/07 22:49:31;;;;;;;13.07;7.50;;;14.60;99.90;;;;;;10453821;28;20253;-73
2022/10/07 22:54:32;;;;;;;16.83;6.83;;;14.70;99.90;;;;;;10451358;28;20219;-73
2022/10/07 22:59:33;;;;;;;13.20;6.50;;;14.70;99.90;;;;;;10453512;28;20210;-73
2022/10/07 23:04:33;;;;;;;11.50;6.73;;;14.70;99.90;;;;;;10451369;28;20225;-73
2022/10/07 23:09:36;;;;;;;11.53;6.83;;;14.70;99.90;;;;;;10452820;28;20638;-73
2022/10/07 23:14:37;;;;;;;10.33;6.97;;;14.70;99.90;;;;;;10450956;28;20228;-73
2022/10/07 23:19:43;;;;;;;9.33;6.60;;;14.70;99.90;;;;;;10452841;28;20213;-73
2022/10/07 23:24:44;;;;;;;11.00;6.67;;;14.60;99.90;;;;;;10450242;28;20226;-73
2022/10/07 23:29:45;;;;;;;10.90;6.30;;;14.60;99.90;;;;;;10451241;28;20238;-73
2022/10/07 23:34:45;;;;;;;12.63;7.33;;;14.50;99.90;;;;;;10449953;28;20280;-73
2022/10/07 23:39:46;;;;;;;13.23;7.37;;;14.50;99.90;;;;;;10451490;28;20613;-72
2022/10/07 23:44:46;;;;;;;10.40;6.73;;;14.50;99.90;;;;;;10450758;28;20218;-72
2022/10/07 23:49:47;;;;;;;10.13;7.00;;;14.50;99.90;;;;;;10451069;28;20749;-73
2022/10/07 23:54:47;;;;;;;11.67;6.30;;;14.60;99.90;;;;;;10450220;28;20698;-73
2022/10/07 23:59:48;;;;;;;12.87;7.43;;;14.50;99.90;;;;;;10450018;28;20327;-73
